createdAt,value
2019-03-08T00:00:39.740Z,9.04
2019-03-08T00:01:39.728Z,9.01
2019-03-08T00:02:39.716Z,8.94
2019-03-08T00:03:39.704Z,8.97
2019-03-08T00:04:39.690Z,8.89
2019-03-08T00:05:39.679Z,8.94
2019-03-08T00:06:39.667Z,8.97
2019-03-08T00:07:39.657Z,8.88
2019-03-08T00:08:39.641Z,8.86
2019-03-08T00:09:39.630Z,8.85
2019-03-08T00:10:39.620Z,8.80
2019-03-08T00:11:39.604Z,8.82
2019-03-08T00:12:39.592Z,8.73
2019-03-08T00:13:39.580Z,8.75
2019-03-08T00:14:39.569Z,8.58
2019-03-08T00:15:39.556Z,8.64
2019-03-08T00:16:39.545Z,8.58
2019-03-08T00:17:39.534Z,8.67
2019-03-08T00:18:39.522Z,8.68
2019-03-08T00:19:39.509Z,8.75
2019-03-08T00:20:39.495Z,8.76
2019-03-08T00:21:39.481Z,8.67
2019-03-08T00:22:39.470Z,8.64
2019-03-08T00:23:39.459Z,8.63
2019-03-08T00:24:39.455Z,8.57
2019-03-08T00:25:39.434Z,8.60
2019-03-08T00:26:39.423Z,8.63
2019-03-08T00:27:39.409Z,8.61
2019-03-08T00:28:39.402Z,8.73
2019-03-08T00:29:39.386Z,8.67
2019-03-08T00:30:39.374Z,8.71
2019-03-08T00:31:39.361Z,8.73
2019-03-08T00:32:39.349Z,8.71
2019-03-08T00:33:39.335Z,8.75
2019-03-08T00:34:39.326Z,8.88
2019-03-08T00:35:39.313Z,8.89
2019-03-08T00:36:39.300Z,8.93
2019-03-08T00:37:39.286Z,8.86
2019-03-08T00:38:39.275Z,8.82
2019-03-08T00:39:39.263Z,8.86
2019-03-08T00:40:39.251Z,8.94
2019-03-08T00:41:39.238Z,8.86
2019-03-08T00:42:39.226Z,8.82
2019-03-08T00:43:39.214Z,8.82
2019-03-08T00:44:39.201Z,8.88
2019-03-08T00:45:39.189Z,8.88
2019-03-08T00:46:39.176Z,8.88
2019-03-08T00:47:39.164Z,8.96
2019-03-08T00:48:39.151Z,8.96
2019-03-08T00:49:39.139Z,8.94
2019-03-08T00:50:39.128Z,8.86
2019-03-08T00:51:39.117Z,8.76
2019-03-08T00:52:39.104Z,8.88
2019-03-08T00:53:39.089Z,8.86
2019-03-08T00:54:39.082Z,8.89
2019-03-08T00:55:39.069Z,8.78
2019-03-08T00:56:39.814Z,8.83
2019-03-08T00:57:39.040Z,8.79
2019-03-08T00:58:39.031Z,8.70
2019-03-08T00:59:39.017Z,8.76
2019-03-08T01:00:39.004Z,8.71
2019-03-08T01:01:38.993Z,8.58
2019-03-08T01:02:38.980Z,8.63
2019-03-08T01:03:38.967Z,8.64
2019-03-08T01:04:38.956Z,8.50
2019-03-08T01:05:38.944Z,8.55
2019-03-08T01:06:38.932Z,8.54
2019-03-08T01:07:38.919Z,8.50
2019-03-08T01:08:38.906Z,8.52
2019-03-08T01:09:38.894Z,8.60
2019-03-08T01:10:38.883Z,8.65
2019-03-08T01:11:38.868Z,8.61
2019-03-08T01:12:38.861Z,8.76
2019-03-08T01:13:38.844Z,8.88
2019-03-08T01:14:38.832Z,8.83
2019-03-08T01:15:38.819Z,8.94
2019-03-08T01:16:38.807Z,8.79
2019-03-08T01:17:38.798Z,8.76
2019-03-08T01:18:38.816Z,8.83
2019-03-08T01:19:38.770Z,8.86
2019-03-08T01:20:38.759Z,8.97
2019-03-08T01:21:38.744Z,8.93
2019-03-08T01:22:38.733Z,8.94
2019-03-08T01:23:38.719Z,8.94
2019-03-08T01:24:38.707Z,9.06
2019-03-08T01:25:38.697Z,9.08
2019-03-08T01:26:38.681Z,9.01
2019-03-08T01:27:38.672Z,9.06
2019-03-08T01:28:38.659Z,8.96
2019-03-08T01:29:38.646Z,9.03
2019-03-08T01:30:38.632Z,8.98
2019-03-08T01:31:38.623Z,9.04
2019-03-08T01:32:38.607Z,8.93
2019-03-08T01:33:38.596Z,8.97
2019-03-08T01:34:38.584Z,8.97
2019-03-08T01:35:38.572Z,9.12
2019-03-08T01:36:38.558Z,8.97
2019-03-08T01:37:38.549Z,9.00
2019-03-08T01:38:38.537Z,9.01
2019-03-08T01:39:38.524Z,8.97
2019-03-08T01:40:38.517Z,9.08
2019-03-08T01:41:38.498Z,8.98
2019-03-08T01:42:38.487Z,8.93
2019-03-08T01:43:38.476Z,8.97
2019-03-08T01:44:38.462Z,8.89
2019-03-08T01:45:38.453Z,9.03
2019-03-08T01:46:38.437Z,9.16
2019-03-08T01:47:38.425Z,9.13
2019-03-08T01:49:38.401Z,9.27
2019-03-08T01:50:38.389Z,9.30
2019-03-08T01:51:38.381Z,9.31
2019-03-08T01:52:38.365Z,9.23
2019-03-08T01:53:38.356Z,9.24
2019-03-08T01:54:38.346Z,9.23
2019-03-08T01:55:38.330Z,9.17
2019-03-08T01:56:38.319Z,9.23
2019-03-08T01:57:38.303Z,9.24
2019-03-08T01:58:38.291Z,9.30
2019-03-08T01:59:38.280Z,9.27
2019-03-08T02:00:38.268Z,9.26
2019-03-08T02:01:38.255Z,9.30
2019-03-08T02:02:38.241Z,9.30
2019-03-08T02:03:38.231Z,9.31
2019-03-08T02:04:38.219Z,9.20
2019-03-08T02:05:38.208Z,9.17
2019-03-08T02:06:38.193Z,9.27
2019-03-08T02:07:38.181Z,9.19
2019-03-08T02:08:38.168Z,9.10
2019-03-08T02:09:38.159Z,9.22
2019-03-08T02:10:38.145Z,9.20
2019-03-08T02:11:38.132Z,9.19
2019-03-08T02:12:38.119Z,9.03
2019-03-08T02:13:38.109Z,8.94
2019-03-08T02:14:38.096Z,8.98
2019-03-08T02:15:38.084Z,9.00
2019-03-08T02:16:38.070Z,8.98
2019-03-08T02:17:38.057Z,8.91
2019-03-08T02:18:38.047Z,8.93
2019-03-08T02:19:38.038Z,9.12
2019-03-08T02:20:38.022Z,9.03
2019-03-08T02:21:38.009Z,9.22
2019-03-08T02:22:38.001Z,9.10
2019-03-08T02:23:37.988Z,9.22
2019-03-08T02:24:37.972Z,9.17
2019-03-08T02:25:37.962Z,9.13
2019-03-08T02:26:37.951Z,9.22
2019-03-08T02:27:37.938Z,9.17
2019-03-08T02:28:37.923Z,9.22
2019-03-08T02:29:39.157Z,9.13
2019-03-08T02:30:37.899Z,9.01
2019-03-08T02:31:37.887Z,9.06
2019-03-08T02:32:37.877Z,9.00
2019-03-08T02:33:37.865Z,8.98
2019-03-08T02:34:37.849Z,9.00
2019-03-08T02:35:37.838Z,8.93
2019-03-08T02:36:37.825Z,8.83
2019-03-08T02:37:37.814Z,8.89
2019-03-08T02:38:37.803Z,8.83
2019-03-08T02:39:37.789Z,8.88
2019-03-08T02:40:37.776Z,8.85
2019-03-08T02:41:37.764Z,8.89
2019-03-08T02:42:37.751Z,8.88
2019-03-08T02:43:37.740Z,8.96
2019-03-08T02:44:37.733Z,8.98
2019-03-08T02:45:37.717Z,8.93
2019-03-08T02:46:37.703Z,8.97
2019-03-08T02:47:37.692Z,8.93
2019-03-08T02:48:37.679Z,9.12
2019-03-08T02:49:37.667Z,9.20
2019-03-08T02:50:37.659Z,9.19
2019-03-08T02:51:37.667Z,9.20
2019-03-08T02:52:37.629Z,9.22
2019-03-08T02:53:37.618Z,9.26
2019-03-08T02:54:37.605Z,9.30
2019-03-08T02:55:37.595Z,9.27
2019-03-08T02:56:37.580Z,9.13
2019-03-08T02:57:37.567Z,9.16
2019-03-08T02:58:37.558Z,9.30
2019-03-08T02:59:37.545Z,9.23
2019-03-08T03:00:37.530Z,9.17
2019-03-08T03:01:37.524Z,9.27
2019-03-08T03:02:37.508Z,9.31
2019-03-08T03:03:37.494Z,9.30
2019-03-08T03:04:37.483Z,9.27
2019-03-08T03:05:37.469Z,9.26
2019-03-08T03:06:37.457Z,9.26
2019-03-08T03:07:37.449Z,9.30
2019-03-08T03:08:37.436Z,9.23
2019-03-08T03:09:37.422Z,9.32
2019-03-08T03:10:37.413Z,9.31
2019-03-08T03:11:37.398Z,9.23
2019-03-08T03:12:37.385Z,9.24
2019-03-08T03:13:37.378Z,9.27
2019-03-08T03:14:37.362Z,9.27
2019-03-08T03:15:37.349Z,9.34
2019-03-08T03:16:37.343Z,9.26
2019-03-08T03:17:37.324Z,9.27
2019-03-08T03:18:37.314Z,9.26
2019-03-08T03:19:37.305Z,9.27
2019-03-08T03:20:37.289Z,9.37
2019-03-08T03:21:37.279Z,9.41
2019-03-08T03:22:37.265Z,9.38
2019-03-08T03:23:37.252Z,9.37
2019-03-08T03:24:37.238Z,9.48
2019-03-08T03:25:37.229Z,9.48
2019-03-08T03:26:37.217Z,9.55
2019-03-08T03:27:37.205Z,9.68
2019-03-08T03:28:37.194Z,9.59
2019-03-08T03:29:37.184Z,9.60
2019-03-08T03:30:37.180Z,9.59
2019-03-08T03:31:37.162Z,9.48
2019-03-08T03:32:37.151Z,9.48
2019-03-08T03:33:37.169Z,9.37
2019-03-08T03:34:37.120Z,9.42
2019-03-08T03:35:37.108Z,9.41
2019-03-08T03:36:37.096Z,9.53
2019-03-08T03:37:37.084Z,9.42
2019-03-08T03:38:37.070Z,9.41
2019-03-08T03:39:37.061Z,9.42
2019-03-08T03:40:37.047Z,9.31
2019-03-08T03:41:37.034Z,9.38
2019-03-08T03:42:37.024Z,9.35
2019-03-08T03:43:37.011Z,9.27
2019-03-08T03:44:36.998Z,9.26
2019-03-08T03:45:36.986Z,9.31
2019-03-08T03:46:36.974Z,9.24
2019-03-08T03:47:36.962Z,9.20
2019-03-08T03:48:36.952Z,9.22
2019-03-08T03:49:36.937Z,9.23
2019-03-08T03:50:36.927Z,9.31
2019-03-08T03:51:36.914Z,9.23
2019-03-08T03:52:36.904Z,9.26
2019-03-08T03:53:36.892Z,9.20
2019-03-08T03:54:36.876Z,9.24
2019-03-08T03:55:36.866Z,9.26
2019-03-08T03:56:36.854Z,9.38
2019-03-08T03:57:36.842Z,9.41
2019-03-08T03:58:36.831Z,9.35
2019-03-08T03:59:36.816Z,9.37
2019-03-08T04:00:36.805Z,9.19
2019-03-08T04:01:36.792Z,9.31
2019-03-08T04:02:36.783Z,9.20
2019-03-08T04:03:36.769Z,9.12
2019-03-08T04:04:36.756Z,9.23
2019-03-08T04:05:36.746Z,9.16
2019-03-08T04:06:36.988Z,9.16
2019-03-08T04:07:36.720Z,9.20
2019-03-08T04:08:36.708Z,9.22
2019-03-08T04:09:36.694Z,9.31
2019-03-08T04:10:36.683Z,9.15
2019-03-08T04:11:36.672Z,9.20
2019-03-08T04:12:36.658Z,9.12
2019-03-08T04:13:36.647Z,9.15
2019-03-08T04:14:36.635Z,9.27
2019-03-08T04:15:36.624Z,9.22
2019-03-08T04:16:36.610Z,9.26
2019-03-08T04:17:36.597Z,9.15
2019-03-08T04:18:36.587Z,9.12
2019-03-08T04:19:36.573Z,9.06
2019-03-08T04:20:36.561Z,9.06
2019-03-08T04:21:36.551Z,8.98
2019-03-08T04:22:36.537Z,9.01
2019-03-08T04:23:36.533Z,9.00
2019-03-08T04:24:36.513Z,9.00
2019-03-08T04:25:36.504Z,8.98
2019-03-08T04:26:36.491Z,9.00
2019-03-08T04:27:36.478Z,8.97
2019-03-08T04:28:36.466Z,9.01
2019-03-08T04:29:36.452Z,8.96
2019-03-08T04:30:36.447Z,8.94
2019-03-08T04:31:36.431Z,8.96
2019-03-08T04:32:36.415Z,9.01
2019-03-08T04:33:36.405Z,8.96
2019-03-08T04:34:36.393Z,9.00
2019-03-08T04:35:36.380Z,8.97
2019-03-08T04:36:36.373Z,9.08
2019-03-08T04:37:36.356Z,8.98
2019-03-08T04:38:36.343Z,8.96
2019-03-08T04:39:36.332Z,8.93
2019-03-08T04:40:36.319Z,8.97
2019-03-08T04:41:36.306Z,8.96
2019-03-08T04:42:36.296Z,9.03
2019-03-08T04:43:36.288Z,8.83
2019-03-08T04:44:36.271Z,8.93
2019-03-08T04:45:36.257Z,8.91
2019-03-08T04:46:36.247Z,9.06
2019-03-08T04:47:36.233Z,9.06
2019-03-08T04:48:36.226Z,9.00
2019-03-08T04:49:36.210Z,9.01
2019-03-08T04:50:36.199Z,9.00
2019-03-08T04:51:36.188Z,9.13
2019-03-08T04:52:36.175Z,9.01
2019-03-08T04:53:36.158Z,8.98
2019-03-08T04:54:36.147Z,8.97
2019-03-08T04:55:36.135Z,8.98
2019-03-08T04:56:36.124Z,8.93
2019-03-08T04:57:36.113Z,8.93
2019-03-08T04:58:36.099Z,8.97
2019-03-08T04:59:36.087Z,8.89
2019-03-08T05:00:36.075Z,8.86
2019-03-08T05:01:36.064Z,8.86
2019-03-08T05:02:36.051Z,8.83
2019-03-08T05:03:36.042Z,8.80
2019-03-08T05:04:36.025Z,8.82
2019-03-08T05:05:36.014Z,8.78
2019-03-08T05:06:36.003Z,8.78
2019-03-08T05:07:35.990Z,8.82
2019-03-08T05:08:35.976Z,8.80
2019-03-08T05:09:35.966Z,8.85
2019-03-08T05:10:35.952Z,8.83
2019-03-08T05:11:35.942Z,8.85
2019-03-08T05:12:35.928Z,8.93
2019-03-08T05:13:35.918Z,9.00
2019-03-08T05:14:35.906Z,9.01
2019-03-08T05:15:35.894Z,8.96
2019-03-08T05:16:35.884Z,8.96
2019-03-08T05:17:35.869Z,8.93
2019-03-08T05:18:35.858Z,8.86
2019-03-08T05:19:35.853Z,8.85
2019-03-08T05:20:35.834Z,8.91
2019-03-08T05:21:35.820Z,8.89
2019-03-08T05:22:35.813Z,8.96
2019-03-08T05:23:35.797Z,8.96
2019-03-08T05:24:35.787Z,9.12
2019-03-08T05:25:35.773Z,9.08
2019-03-08T05:26:35.760Z,9.08
2019-03-08T05:27:35.750Z,9.06
2019-03-08T05:28:35.737Z,9.10
2019-03-08T05:29:35.725Z,9.08
2019-03-08T05:30:35.711Z,9.01
2019-03-08T05:31:35.700Z,9.03
2019-03-08T05:32:35.689Z,9.01
2019-03-08T05:33:35.682Z,9.08
2019-03-08T05:34:35.664Z,9.22
2019-03-08T05:35:35.651Z,9.03
2019-03-08T05:36:35.641Z,9.08
2019-03-08T05:37:35.628Z,9.17
2019-03-08T05:38:35.615Z,9.15
2019-03-08T05:39:35.615Z,9.16
2019-03-08T05:40:35.589Z,9.15
2019-03-08T05:41:35.577Z,9.24
2019-03-08T05:42:35.568Z,9.22
2019-03-08T05:43:35.558Z,9.15
2019-03-08T05:44:35.542Z,9.15
2019-03-08T05:45:35.530Z,9.12
2019-03-08T05:46:35.517Z,9.01
2019-03-08T05:47:35.504Z,8.97
2019-03-08T05:48:35.492Z,9.12
2019-03-08T05:49:35.482Z,8.98
2019-03-08T05:50:35.468Z,8.94
2019-03-08T05:51:35.457Z,8.97
2019-03-08T05:52:35.447Z,8.86
2019-03-08T05:53:35.431Z,8.85
2019-03-08T05:54:35.441Z,8.80
2019-03-08T05:55:35.407Z,8.78
2019-03-08T05:56:35.395Z,8.70
2019-03-08T05:57:35.385Z,8.70
2019-03-08T05:58:35.369Z,8.70
2019-03-08T05:59:35.360Z,8.73
2019-03-08T06:00:35.644Z,8.75
2019-03-08T06:01:35.334Z,8.75
2019-03-08T06:02:35.325Z,8.75
2019-03-08T06:03:35.312Z,8.70
2019-03-08T06:04:35.296Z,8.78
2019-03-08T06:05:35.285Z,8.73
2019-03-08T06:06:35.289Z,8.76
2019-03-08T06:07:35.261Z,8.86
2019-03-08T06:08:35.250Z,8.85
2019-03-08T06:09:35.238Z,8.89
2019-03-08T06:10:35.225Z,8.80
2019-03-08T06:11:35.215Z,8.80
2019-03-08T06:12:35.200Z,8.73
2019-03-08T06:13:35.187Z,8.80
2019-03-08T06:14:35.177Z,8.70
2019-03-08T06:15:35.165Z,8.76
2019-03-08T06:16:35.155Z,8.71
2019-03-08T06:17:35.141Z,8.68
2019-03-08T06:18:35.130Z,8.61
2019-03-08T06:19:35.118Z,8.60
2019-03-08T06:20:35.103Z,8.57
2019-03-08T06:21:35.094Z,8.58
2019-03-08T06:22:35.081Z,8.52
2019-03-08T06:23:35.068Z,8.54
2019-03-08T06:24:35.055Z,8.50
2019-03-08T06:25:35.042Z,8.49
2019-03-08T06:26:35.031Z,8.49
2019-03-08T06:27:35.017Z,8.46
2019-03-08T06:28:35.005Z,8.52
2019-03-08T06:29:34.994Z,8.45
2019-03-08T06:30:34.982Z,8.50
2019-03-08T06:31:34.969Z,8.46
2019-03-08T06:32:34.958Z,8.40
2019-03-08T06:33:34.948Z,8.43
2019-03-08T06:34:34.933Z,8.45
2019-03-08T06:35:34.927Z,8.42
2019-03-08T06:36:34.909Z,8.39
2019-03-08T06:37:34.897Z,8.36
2019-03-08T06:38:34.886Z,8.36
2019-03-08T06:39:34.876Z,8.31
2019-03-08T06:40:34.860Z,8.34
2019-03-08T06:41:34.848Z,8.29
2019-03-08T06:42:34.836Z,8.29
2019-03-08T06:43:34.824Z,8.37
2019-03-08T06:44:34.813Z,8.31
2019-03-08T06:45:34.799Z,8.31
2019-03-08T06:46:34.788Z,8.43
2019-03-08T06:47:34.776Z,8.45
2019-03-08T06:48:34.764Z,8.47
2019-03-08T06:49:34.750Z,8.54
2019-03-08T06:50:34.740Z,8.49
2019-03-08T06:51:34.728Z,8.45
2019-03-08T06:52:34.717Z,8.49
2019-03-08T06:53:34.710Z,8.43
2019-03-08T06:54:34.691Z,8.43
2019-03-08T06:55:34.678Z,8.39
2019-03-08T06:56:34.696Z,8.45
2019-03-08T06:57:34.657Z,8.43
2019-03-08T06:58:34.645Z,8.46
2019-03-08T06:59:34.633Z,8.42
2019-03-08T07:00:34.622Z,8.47
2019-03-08T07:01:34.608Z,8.43
2019-03-08T07:02:34.601Z,8.43
2019-03-08T07:03:34.584Z,8.43
2019-03-08T07:04:34.572Z,8.47
2019-03-08T07:05:34.603Z,8.45
2019-03-08T07:06:34.549Z,8.49
2019-03-08T07:07:34.536Z,8.46
2019-03-08T07:08:34.521Z,8.50
2019-03-08T07:09:34.511Z,8.47
2019-03-08T07:10:34.497Z,8.49
2019-03-08T07:11:34.487Z,8.47
2019-03-08T07:12:34.473Z,8.46
2019-03-08T07:13:34.459Z,8.54
2019-03-08T07:14:34.452Z,8.54
2019-03-08T07:15:34.440Z,8.55
2019-03-08T07:16:34.424Z,8.54
2019-03-08T07:17:34.418Z,8.58
2019-03-08T07:18:34.399Z,8.58
2019-03-08T07:19:40.771Z,8.55
2019-03-08T07:20:34.375Z,8.52
2019-03-08T07:21:34.363Z,8.68
2019-03-08T07:22:34.351Z,8.67
2019-03-08T07:23:34.343Z,8.65
2019-03-08T07:24:34.327Z,8.71
2019-03-08T07:25:34.317Z,8.71
2019-03-08T07:26:34.305Z,8.64
2019-03-08T07:27:34.290Z,8.76
2019-03-08T07:28:34.279Z,8.64
2019-03-08T07:29:34.266Z,8.68
2019-03-08T07:30:34.256Z,8.65
2019-03-08T07:31:34.245Z,8.58
2019-03-08T07:32:34.231Z,8.67
2019-03-08T07:33:34.218Z,8.63
2019-03-08T07:34:34.207Z,8.65
2019-03-08T07:35:34.195Z,8.64
2019-03-08T07:36:34.181Z,8.61
2019-03-08T07:37:34.172Z,8.71
2019-03-08T07:38:34.158Z,8.67
2019-03-08T07:39:34.147Z,8.71
2019-03-08T07:40:34.136Z,8.63
2019-03-08T07:41:34.125Z,8.71
2019-03-08T07:42:34.110Z,8.63
2019-03-08T07:43:34.100Z,8.75
2019-03-08T07:44:34.088Z,8.75
2019-03-08T07:45:34.076Z,8.71
2019-03-08T07:46:34.064Z,8.70
2019-03-08T07:47:34.054Z,8.76
2019-03-08T07:48:34.040Z,8.80
2019-03-08T07:49:34.029Z,8.78
2019-03-08T07:50:34.021Z,8.83
2019-03-08T07:51:34.003Z,8.86
2019-03-08T07:52:33.994Z,8.83
2019-03-08T07:53:33.981Z,8.88
2019-03-08T07:54:33.970Z,8.91
2019-03-08T07:55:33.958Z,8.98
2019-03-08T07:56:33.944Z,9.00
2019-03-08T07:57:33.932Z,9.06
2019-03-08T07:58:33.920Z,9.06
2019-03-08T07:59:33.909Z,9.20
2019-03-08T08:00:33.895Z,9.23
2019-03-08T08:01:33.886Z,9.27
2019-03-08T08:02:33.875Z,9.31
2019-03-08T08:03:33.862Z,9.30
2019-03-08T08:04:33.850Z,9.32
2019-03-08T08:05:33.837Z,9.35
2019-03-08T08:06:33.824Z,9.40
2019-03-08T08:07:33.815Z,9.50
2019-03-08T08:08:33.800Z,9.49
2019-03-08T08:09:33.791Z,9.52
2019-03-08T08:10:33.779Z,9.58
2019-03-08T08:11:33.769Z,9.56
2019-03-08T08:12:33.754Z,9.67
2019-03-08T08:13:33.742Z,9.60
2019-03-08T08:14:39.569Z,9.71
2019-03-08T08:15:33.722Z,9.85
2019-03-08T08:16:33.708Z,9.91
2019-03-08T08:17:33.696Z,9.99
2019-03-08T08:18:33.684Z,10.06
2019-03-08T08:19:33.675Z,10.11
2019-03-08T08:20:33.664Z,10.14
2019-03-08T08:21:33.654Z,10.18
2019-03-08T08:22:33.657Z,10.25
2019-03-08T08:23:35.221Z,10.28
2019-03-08T08:24:33.618Z,10.29
2019-03-08T08:25:36.760Z,10.34
2019-03-08T08:26:33.635Z,10.28
2019-03-08T08:27:33.586Z,10.25
2019-03-08T08:28:33.573Z,10.26
2019-03-08T08:29:35.203Z,10.22
2019-03-08T08:30:33.552Z,10.28
2019-03-08T08:31:33.539Z,10.25
2019-03-08T08:32:33.528Z,10.18
2019-03-08T08:33:33.517Z,10.25
2019-03-08T08:34:33.508Z,10.17
2019-03-08T08:35:33.494Z,10.16
2019-03-08T08:36:33.484Z,10.11
2019-03-08T08:37:33.479Z,10.04
2019-03-08T08:38:33.462Z,10.07
2019-03-08T08:39:33.449Z,10.07
2019-03-08T08:40:33.437Z,10.01
2019-03-08T08:41:33.429Z,9.99
2019-03-08T08:42:33.417Z,9.99
2019-03-08T08:43:33.405Z,9.98
2019-03-08T08:44:33.394Z,9.96
2019-03-08T08:45:33.384Z,9.93
2019-03-08T08:46:33.371Z,10.07
2019-03-08T08:47:33.359Z,10.13
2019-03-08T08:48:33.347Z,10.11
2019-03-08T08:49:33.339Z,10.14
2019-03-08T08:50:33.327Z,10.13
2019-03-08T08:51:33.316Z,10.11
2019-03-08T08:52:33.304Z,10.16
2019-03-08T08:53:33.294Z,10.11
2019-03-08T08:54:33.281Z,10.18
2019-03-08T08:55:33.270Z,10.16
2019-03-08T08:56:33.258Z,10.16
2019-03-08T08:57:33.252Z,10.11
2019-03-08T08:58:33.238Z,10.11
2019-03-08T08:59:33.227Z,10.11
2019-03-08T09:00:33.233Z,10.16
2019-03-08T09:01:33.201Z,10.14
2019-03-08T09:02:33.191Z,10.25
2019-03-08T09:03:33.180Z,10.16
2019-03-08T09:04:33.168Z,10.26
2019-03-08T09:05:33.159Z,10.28
2019-03-08T09:06:33.160Z,10.36
2019-03-08T09:07:33.136Z,10.31
2019-03-08T09:08:33.124Z,10.43
2019-03-08T09:09:33.114Z,10.38
2019-03-08T09:10:33.102Z,10.42
2019-03-08T09:11:33.093Z,10.46
2019-03-08T09:12:33.083Z,10.62
2019-03-08T09:13:33.072Z,10.62
2019-03-08T09:14:33.063Z,10.60
2019-03-08T09:15:33.052Z,10.58
2019-03-08T09:16:33.045Z,10.73
2019-03-08T09:17:33.029Z,10.66
2019-03-08T09:18:33.017Z,10.78
2019-03-08T09:19:33.006Z,10.76
2019-03-08T09:20:32.995Z,10.80
2019-03-08T09:21:32.984Z,10.81
2019-03-08T09:22:32.974Z,10.87
2019-03-08T09:23:32.971Z,10.88
2019-03-08T09:24:32.953Z,10.87
2019-03-08T09:25:32.944Z,10.90
2019-03-08T09:26:33.157Z,10.88
2019-03-08T09:27:32.922Z,10.88
2019-03-08T09:28:32.911Z,10.84
2019-03-08T09:29:41.083Z,10.86
2019-03-08T09:30:32.892Z,10.95
2019-03-08T09:31:32.879Z,10.99
2019-03-08T09:32:32.868Z,11.03
2019-03-08T09:33:32.859Z,11.02
2019-03-08T09:34:32.850Z,11.08
2019-03-08T09:35:32.838Z,11.13
2019-03-08T09:36:32.825Z,11.19
2019-03-08T09:37:32.815Z,11.17
2019-03-08T09:38:32.807Z,11.09
2019-03-08T09:39:32.799Z,11.17
2019-03-08T09:40:32.784Z,11.27
2019-03-08T09:41:32.774Z,11.28
2019-03-08T09:42:32.762Z,11.20
2019-03-08T09:43:32.756Z,11.23
2019-03-08T09:44:32.744Z,11.21
2019-03-08T09:45:32.733Z,11.12
2019-03-08T09:46:32.721Z,11.06
2019-03-08T09:47:32.713Z,10.98
2019-03-08T09:48:32.702Z,10.98
2019-03-08T09:49:32.692Z,10.87
2019-03-08T09:50:32.682Z,10.91
2019-03-08T09:51:32.671Z,10.93
2019-03-08T09:52:32.658Z,10.88
2019-03-08T09:53:32.650Z,10.90
2019-03-08T09:54:32.637Z,10.84
2019-03-08T09:55:32.627Z,10.91
2019-03-08T09:56:32.619Z,10.98
2019-03-08T09:57:32.605Z,10.99
2019-03-08T09:58:32.598Z,10.99
2019-03-08T09:59:32.586Z,10.94
2019-03-08T10:00:32.575Z,10.99
2019-03-08T10:01:32.564Z,10.94
2019-03-08T10:02:32.555Z,11.08
2019-03-08T10:03:32.548Z,11.02
2019-03-08T10:04:32.534Z,11.06
2019-03-08T10:05:32.524Z,11.06
2019-03-08T10:06:32.524Z,11.11
2019-03-08T10:07:32.503Z,11.19
2019-03-08T10:08:32.491Z,11.23
2019-03-08T10:09:32.481Z,11.19
2019-03-08T10:10:32.470Z,11.20
2019-03-08T10:11:32.461Z,11.21
2019-03-08T10:12:32.449Z,11.41
2019-03-08T10:13:32.444Z,11.42
2019-03-08T10:14:32.428Z,11.39
2019-03-08T10:15:32.421Z,11.51
2019-03-08T10:16:32.407Z,11.48
2019-03-08T10:17:32.397Z,11.60
2019-03-08T10:18:32.387Z,11.64
2019-03-08T10:19:32.377Z,11.74
2019-03-08T10:20:32.367Z,11.82
2019-03-08T10:21:32.356Z,11.88
2019-03-08T10:22:32.345Z,11.85
2019-03-08T10:23:32.336Z,11.96
2019-03-08T10:24:32.327Z,12.08
2019-03-08T10:25:32.316Z,12.21
2019-03-08T10:26:32.306Z,12.22
2019-03-08T10:27:38.126Z,12.26
2019-03-08T10:28:32.285Z,12.38
2019-03-08T10:29:32.276Z,12.41
2019-03-08T10:30:32.266Z,12.59
2019-03-08T10:31:32.257Z,12.63
2019-03-08T10:32:37.224Z,12.59
2019-03-08T10:33:32.237Z,12.52
2019-03-08T10:34:32.226Z,12.51
2019-03-08T10:35:32.220Z,12.54
2019-03-08T10:36:32.211Z,12.59
2019-03-08T10:37:32.200Z,12.71
2019-03-08T10:38:32.190Z,12.73
2019-03-08T10:39:32.181Z,12.74
2019-03-08T10:40:32.170Z,12.77
2019-03-08T10:41:32.163Z,12.84
2019-03-08T10:42:32.152Z,12.85
2019-03-08T10:43:32.141Z,12.91
2019-03-08T10:44:32.134Z,12.81
2019-03-08T10:45:32.124Z,12.88
2019-03-08T10:46:32.115Z,12.88
2019-03-08T10:47:32.106Z,12.92
2019-03-08T10:48:32.095Z,12.76
2019-03-08T10:49:32.085Z,12.77
2019-03-08T10:50:32.077Z,12.84
2019-03-08T10:51:32.068Z,12.85
2019-03-08T10:52:32.059Z,12.96
2019-03-08T10:53:32.049Z,12.76
2019-03-08T10:54:32.040Z,12.79
2019-03-08T10:55:32.029Z,12.81
2019-03-08T10:56:32.024Z,12.79
2019-03-08T10:57:32.010Z,12.69
2019-03-08T10:58:32.003Z,12.79
2019-03-08T10:59:31.992Z,12.77
2019-03-08T11:00:31.983Z,12.77
2019-03-08T11:01:31.975Z,12.74
2019-03-08T11:02:31.966Z,12.66
2019-03-08T11:03:31.958Z,12.74
2019-03-08T11:04:31.946Z,12.66
2019-03-08T11:05:31.939Z,12.66
2019-03-08T11:06:31.930Z,12.61
2019-03-08T11:07:31.918Z,12.61
2019-03-08T11:08:31.911Z,12.66
2019-03-08T11:09:31.900Z,12.67
2019-03-08T11:10:31.890Z,12.61
2019-03-08T11:11:31.881Z,12.66
2019-03-08T11:12:31.875Z,12.61
2019-03-08T11:13:31.865Z,12.56
2019-03-08T11:14:31.854Z,12.55
2019-03-08T11:15:31.844Z,12.55
2019-03-08T11:16:31.836Z,12.56
2019-03-08T11:17:31.825Z,12.59
2019-03-08T11:18:31.815Z,12.59
2019-03-08T11:19:31.813Z,12.66
2019-03-08T11:20:31.802Z,12.56
2019-03-08T11:21:31.787Z,12.66
2019-03-08T11:22:31.781Z,12.54
2019-03-08T11:23:31.774Z,12.56
2019-03-08T11:24:31.760Z,12.58
2019-03-08T11:25:34.988Z,12.46
2019-03-08T11:26:31.744Z,12.36
2019-03-08T11:27:31.737Z,12.31
2019-03-08T11:28:31.724Z,12.21
2019-03-08T11:29:31.715Z,12.15
2019-03-08T11:30:31.706Z,12.11
2019-03-08T11:31:31.699Z,12.07
2019-03-08T11:32:31.686Z,12.05
2019-03-08T11:33:31.714Z,11.85
2019-03-08T11:34:31.668Z,11.82
2019-03-08T11:35:31.678Z,11.84
2019-03-08T11:36:31.654Z,11.81
2019-03-08T11:37:31.641Z,11.78
2019-03-08T11:38:31.630Z,11.77
2019-03-08T11:39:31.623Z,11.63
2019-03-08T11:40:31.611Z,11.69
2019-03-08T11:41:31.598Z,11.63
2019-03-08T11:42:31.590Z,11.60
2019-03-08T11:43:31.580Z,11.64
2019-03-08T11:44:31.571Z,11.49
2019-03-08T11:45:31.561Z,11.44
2019-03-08T11:46:31.554Z,11.48
2019-03-08T11:47:31.542Z,11.39
2019-03-08T11:48:31.535Z,11.41
2019-03-08T11:49:31.520Z,11.35
2019-03-08T11:50:31.513Z,11.27
2019-03-08T11:51:31.501Z,11.23
2019-03-08T11:52:31.489Z,11.38
2019-03-08T11:53:31.479Z,11.27
2019-03-08T11:54:40.374Z,11.24
2019-03-08T11:55:31.461Z,11.36
2019-03-08T11:56:31.449Z,11.30
2019-03-08T11:57:31.439Z,11.45
2019-03-08T11:58:31.433Z,11.46
2019-03-08T11:59:31.421Z,11.46
2019-03-08T12:00:31.410Z,11.48
2019-03-08T12:01:31.400Z,11.60
2019-03-08T12:02:37.860Z,11.49
2019-03-08T12:03:31.378Z,11.49
2019-03-08T12:04:31.368Z,11.62
2019-03-08T12:05:31.359Z,11.72
2019-03-08T12:06:31.348Z,11.84
2019-03-08T12:07:31.337Z,11.88
2019-03-08T12:08:31.329Z,11.84
2019-03-08T12:09:31.317Z,11.94
2019-03-08T12:10:31.310Z,12.01
2019-03-08T12:11:31.300Z,12.05
2019-03-08T12:12:31.286Z,12.08
2019-03-08T12:13:32.310Z,12.19
2019-03-08T12:14:31.263Z,12.22
2019-03-08T12:15:31.263Z,12.25
2019-03-08T12:16:31.245Z,12.21
2019-03-08T12:17:31.235Z,12.22
2019-03-08T12:18:31.227Z,12.08
2019-03-08T12:19:31.218Z,12.21
2019-03-08T12:20:31.206Z,12.19
2019-03-08T12:21:31.196Z,12.23
2019-03-08T12:22:31.185Z,12.07
2019-03-08T12:23:31.175Z,12.22
2019-03-08T12:24:31.167Z,12.21
2019-03-08T12:25:31.161Z,12.30
2019-03-08T12:26:31.169Z,12.26
2019-03-08T12:27:31.137Z,12.30
2019-03-08T12:28:31.129Z,12.30
2019-03-08T12:29:31.117Z,12.30
2019-03-08T12:30:31.107Z,12.29
2019-03-08T12:31:31.101Z,12.37
2019-03-08T12:32:31.090Z,12.29
2019-03-08T12:33:31.077Z,12.29
2019-03-08T12:34:31.070Z,12.41
2019-03-08T12:35:31.062Z,12.43
2019-03-08T12:36:31.051Z,12.40
2019-03-08T12:37:31.040Z,12.37
2019-03-08T12:38:31.031Z,12.41
2019-03-08T12:39:31.024Z,12.40
2019-03-08T12:40:31.017Z,12.40
2019-03-08T12:41:31.002Z,12.44
2019-03-08T12:42:30.992Z,12.40
2019-03-08T12:43:30.986Z,12.52
2019-03-08T12:44:30.972Z,12.58
2019-03-08T12:45:30.966Z,12.59
2019-03-08T12:46:30.955Z,12.61
2019-03-08T12:47:30.947Z,12.66
2019-03-08T12:48:30.936Z,12.69
2019-03-08T12:49:30.929Z,12.76
2019-03-08T12:50:30.917Z,12.81
2019-03-08T12:51:30.908Z,12.94
2019-03-08T12:52:30.898Z,12.95
2019-03-08T12:53:30.887Z,12.95
2019-03-08T12:54:30.883Z,13.06
2019-03-08T12:55:30.872Z,12.96
2019-03-08T12:56:30.862Z,13.04
2019-03-08T12:57:30.851Z,13.07
2019-03-08T12:58:30.842Z,12.95
2019-03-08T12:59:30.833Z,13.07
2019-03-08T13:00:30.824Z,13.01
2019-03-08T13:01:30.812Z,13.07
2019-03-08T13:02:30.803Z,13.13
2019-03-08T13:03:30.794Z,13.12
2019-03-08T13:04:30.785Z,13.22
2019-03-08T13:05:30.776Z,13.19
2019-03-08T13:06:30.765Z,13.19
2019-03-08T13:07:30.756Z,13.10
2019-03-08T13:08:30.754Z,13.09
2019-03-08T13:09:30.737Z,12.80